Time;durP1;ratioP1;P1;durP2;ratioP2;P2;SDS_P1;SDS_P2;PMS_P1;PMS_P2;Temp;Humidity;BMP_temperature;BMP_pressure;BME280_temperature;BME280_humidity;BME280_pressure;Samples;Min_cycle;Max_cycle;Signal;HPM_P1;HPM_P2
2023/09/07 00:01:14;;;;;;;55.67;45.47;;;28.10;99.90;;;;;;5073062;28;20028;-69
2023/09/07 00:03:41;;;;;;;61.00;53.65;;;28.10;99.90;;;;;;5073456;28;20021;-68
2023/09/07 00:06:08;;;;;;;68.35;57.10;;;28.10;99.90;;;;;;5073336;28;20078;-67
2023/09/07 00:08:35;;;;;;;79.15;57.63;;;28.00;99.90;;;;;;5073262;28;20021;-67
2023/09/07 00:11:05;;;;;;;78.30;58.70;;;27.90;99.90;;;;;;5073085;28;20064;-67
2023/09/07 00:13:32;;;;;;;90.32;58.42;;;27.90;99.90;;;;;;5072969;28;20032;-67
2023/09/07 00:16:01;;;;;;;89.75;56.35;;;28.00;99.90;;;;;;5073154;28;20111;-67
2023/09/07 00:18:28;;;;;;;91.00;54.97;;;28.00;99.90;;;;;;5073017;28;20368;-67
2023/09/07 00:20:54;;;;;;;70.72;48.85;;;28.00;99.90;;;;;;5072927;28;20032;-68
2023/09/07 00:23:21;;;;;;;59.58;39.72;;;28.00;99.90;;;;;;5072802;28;20467;-67
2023/09/07 00:25:48;;;;;;;93.40;59.67;;;27.90;99.90;;;;;;5072853;28;20102;-68
2023/09/07 00:28:15;;;;;;;119.18;74.35;;;28.00;99.90;;;;;;5073166;28;20040;-67
2023/09/07 00:30:41;;;;;;;87.75;55.13;;;28.00;99.90;;;;;;5072807;28;20021;-67
2023/09/07 00:33:08;;;;;;;150.10;100.40;;;28.00;99.90;;;;;;5073015;28;20024;-68
2023/09/07 00:35:35;;;;;;;150.63;97.40;;;28.00;99.90;;;;;;5072994;28;20127;-68
2023/09/07 00:38:02;;;;;;;86.85;54.72;;;28.00;99.90;;;;;;5072850;28;20048;-68
2023/09/07 00:40:29;;;;;;;49.60;35.33;;;27.90;99.90;;;;;;5073024;28;20025;-67
2023/09/07 00:42:56;;;;;;;49.47;33.53;;;28.00;99.90;;;;;;5072864;28;20021;-68
2023/09/07 00:45:23;;;;;;;60.38;41.55;;;28.00;99.90;;;;;;5072759;28;20024;-67
2023/09/07 00:47:50;;;;;;;67.05;43.47;;;28.00;99.90;;;;;;5073133;28;20140;-69
2023/09/07 00:50:16;;;;;;;59.97;39.10;;;28.00;99.90;;;;;;5072787;28;20028;-67
2023/09/07 00:52:44;;;;;;;55.00;38.50;;;28.00;99.90;;;;;;5075664;28;20483;-68
2023/09/07 00:55:10;;;;;;;47.65;34.80;;;28.00;99.90;;;;;;5076717;28;20371;-69
2023/09/07 00:57:39;;;;;;;59.40;40.05;;;28.00;99.90;;;;;;5076841;28;20029;-69
2023/09/07 01:00:07;;;;;;;83.85;55.28;;;28.00;99.90;;;;;;5076415;28;20032;-68
2023/09/07 01:02:34;;;;;;;64.68;37.70;;;28.00;99.90;;;;;;5076503;28;20033;-69
2023/09/07 01:05:04;;;;;;;37.85;29.05;;;27.90;99.90;;;;;;5076507;28;20035;-67
2023/09/07 01:07:37;;;;;;;38.03;28.08;;;27.90;99.90;;;;;;5076401;28;20467;-69
2023/09/07 01:10:05;;;;;;;40.67;29.02;;;27.90;99.90;;;;;;5076462;28;20040;-70
2023/09/07 01:12:31;;;;;;;70.97;42.80;;;27.90;99.90;;;;;;5076144;28;20032;-70
2023/09/07 01:14:58;;;;;;;212.98;108.90;;;27.90;99.90;;;;;;5076065;28;20040;-70
2023/09/07 01:17:25;;;;;;;230.52;125.32;;;27.90;99.90;;;;;;5076255;28;20028;-70
2023/09/07 01:19:53;;;;;;;167.85;92.72;;;27.90;99.90;;;;;;5076185;28;20029;-69
2023/09/07 01:22:23;;;;;;;92.22;56.15;;;28.00;99.90;;;;;;5076088;28;20025;-67
2023/09/07 01:24:52;;;;;;;70.03;44.63;;;28.00;99.90;;;;;;5089893;28;20024;-69
2023/09/07 01:27:19;;;;;;;53.22;39.78;;;28.00;99.90;;;;;;5096380;28;20441;-68
2023/09/07 01:29:46;;;;;;;51.95;36.03;;;28.00;99.90;;;;;;5095946;28;20020;-68
2023/09/07 01:32:13;;;;;;;51.65;38.42;;;28.00;99.90;;;;;;5096475;28;20445;-69
2023/09/07 01:34:40;;;;;;;54.47;39.63;;;28.00;99.90;;;;;;5092110;28;20048;-66
2023/09/07 01:37:07;;;;;;;58.45;42.50;;;27.90;99.90;;;;;;5075440;28;20039;-67
2023/09/07 01:39:33;;;;;;;65.07;44.25;;;27.90;99.90;;;;;;5076065;28;20021;-67
2023/09/07 01:42:00;;;;;;;62.40;48.38;;;28.00;99.90;;;;;;5075810;28;20048;-65
2023/09/07 01:44:26;;;;;;;95.47;64.75;;;28.00;99.90;;;;;;5075791;28;20016;-67
2023/09/07 01:46:53;;;;;;;105.32;72.30;;;28.00;99.90;;;;;;5075560;28;20095;-68
2023/09/07 01:49:20;;;;;;;127.60;89.63;;;28.10;99.90;;;;;;5075862;28;20052;-68
2023/09/07 01:51:46;;;;;;;146.57;96.72;;;28.10;99.90;;;;;;5075566;28;20043;-67
2023/09/07 01:54:13;;;;;;;151.98;98.85;;;28.10;99.90;;;;;;5076475;28;20482;-68
2023/09/07 01:56:41;;;;;;;146.68;102.50;;;28.20;99.90;;;;;;5095755;28;20020;-68
2023/09/07 01:59:07;;;;;;;150.55;95.82;;;28.20;99.90;;;;;;5095507;28;20023;-67
2023/09/07 02:01:36;;;;;;;142.82;94.28;;;28.30;99.90;;;;;;5095474;28;20474;-68
2023/09/07 02:04:03;;;;;;;180.00;101.32;;;28.30;99.90;;;;;;5094790;28;20024;-68
2023/09/07 02:06:29;;;;;;;175.50;98.70;;;28.30;99.90;;;;;;5095456;28;20016;-68
2023/09/07 02:08:56;;;;;;;174.55;95.55;;;28.40;99.90;;;;;;5095276;28;20035;-68
2023/09/07 02:11:22;;;;;;;150.90;88.78;;;28.40;99.90;;;;;;5095625;28;20188;-69
2023/09/07 02:13:49;;;;;;;136.77;84.95;;;28.40;99.90;;;;;;5095209;28;20478;-68
2023/09/07 02:16:16;;;;;;;137.55;83.80;;;28.40;99.90;;;;;;5081360;28;20048;-68
2023/09/07 02:18:45;;;;;;;130.00;79.50;;;28.50;99.90;;;;;;5074987;28;20027;-67
2023/09/07 02:21:12;;;;;;;122.63;84.65;;;28.50;99.90;;;;;;5074859;28;20549;-68
2023/09/07 02:23:39;;;;;;;90.95;64.28;;;28.50;99.90;;;;;;5075016;28;20086;-67
2023/09/07 02:26:05;;;;;;;84.20;58.08;;;28.50;99.90;;;;;;5074951;28;20499;-68
2023/09/07 02:28:32;;;;;;;78.10;56.03;;;28.60;99.90;;;;;;5074764;28;20436;-69
2023/09/07 02:31:04;;;;;;;57.88;44.33;;;28.60;99.90;;;;;;5074839;28;20027;-69
2023/09/07 02:33:30;;;;;;;64.53;46.75;;;28.60;99.90;;;;;;5074627;28;20089;-69
2023/09/07 02:35:58;;;;;;;64.30;47.38;;;28.60;99.90;;;;;;5091217;28;20044;-64
2023/09/07 02:38:25;;;;;;;62.17;45.90;;;28.70;99.90;;;;;;5094623;28;20103;-64
2023/09/07 02:40:52;;;;;;;56.25;43.40;;;28.80;99.90;;;;;;5094717;28;20020;-65
2023/09/07 02:43:19;;;;;;;57.38;42.00;;;28.80;99.90;;;;;;5094484;28;20024;-66
2023/09/07 02:45:45;;;;;;;49.78;35.35;;;28.80;99.90;;;;;;5094846;28;20019;-66
2023/09/07 02:48:12;;;;;;;43.00;32.13;;;28.90;99.90;;;;;;5094675;28;20020;-66
2023/09/07 02:50:39;;;;;;;37.83;28.25;;;28.90;99.90;;;;;;5073409;28;20482;-65
2023/09/07 02:53:06;;;;;;;35.65;27.35;;;29.00;99.90;;;;;;5063324;28;20086;-65
2023/09/07 02:55:32;;;;;;;39.22;26.58;;;29.00;99.90;;;;;;5063198;28;20029;-65
2023/09/07 02:57:59;;;;;;;31.05;24.20;;;29.00;99.90;;;;;;5064490;28;20009;-66
2023/09/07 03:00:26;;;;;;;31.50;23.40;;;29.00;99.90;;;;;;5062506;28;20037;-65
2023/09/07 03:02:52;;;;;;;37.05;28.25;;;29.10;99.90;;;;;;5061271;28;20021;-66
2023/09/07 03:05:19;;;;;;;41.65;32.38;;;29.10;99.90;;;;;;5063319;28;20099;-66
2023/09/07 03:07:47;;;;;;;51.33;39.17;;;29.40;99.90;;;;;;5062392;28;20021;-66
2023/09/07 03:10:14;;;;;;;69.57;50.85;;;29.50;99.90;;;;;;5066861;28;20029;-65
2023/09/07 03:12:41;;;;;;;75.82;53.80;;;29.70;99.90;;;;;;5067197;28;20045;-65
2023/09/07 03:15:07;;;;;;;97.95;66.28;;;29.80;99.90;;;;;;5062113;28;20024;-65
2023/09/07 03:17:34;;;;;;;113.47;75.35;;;29.90;99.90;;;;;;5063993;28;20368;-65
2023/09/07 03:20:13;;;;;;;115.70;79.15;;;30.00;99.90;;;;;;5062059;28;20045;-65
2023/09/07 03:22:44;;;;;;;118.43;82.88;;;30.10;99.90;;;;;;5062070;28;20539;-66
2023/09/07 03:25:11;;;;;;;105.85;68.15;;;30.30;99.90;;;;;;5062998;28;20379;-66
2023/09/07 03:27:38;;;;;;;96.40;64.32;;;30.50;99.90;;;;;;5053467;28;20033;-68
2023/09/07 03:30:06;;;;;;;93.22;57.92;;;30.50;99.90;;;;;;5053569;28;20031;-68
2023/09/07 03:32:33;;;;;;;84.55;59.17;;;30.60;99.90;;;;;;5053596;28;20025;-66
2023/09/07 03:35:00;;;;;;;83.72;56.47;;;30.70;99.90;;;;;;5053449;28;20049;-67
2023/09/07 03:37:28;;;;;;;73.57;52.45;;;30.80;99.90;;;;;;5053377;28;20052;-68
2023/09/07 03:39:56;;;;;;;68.30;49.53;;;30.90;99.90;;;;;;5053236;28;20032;-68
2023/09/07 03:42:23;;;;;;;74.20;52.50;;;31.00;99.90;;;;;;5053104;28;20040;-67
2023/09/07 03:44:49;;;;;;;81.45;55.35;;;31.10;99.90;;;;;;5053736;28;20029;-68
2023/09/07 03:47:16;;;;;;;84.05;58.45;;;31.20;99.90;;;;;;5052337;28;20036;-68
2023/09/07 03:49:43;;;;;;;77.05;49.80;;;31.30;99.90;;;;;;5052590;28;20024;-66
2023/09/07 03:52:11;;;;;;;68.00;48.47;;;31.40;99.90;;;;;;5053010;28;20099;-66
2023/09/07 03:54:38;;;;;;;76.53;52.17;;;31.50;99.90;;;;;;5053159;28;20021;-68
2023/09/07 03:57:04;;;;;;;91.53;59.75;;;31.50;99.90;;;;;;5053021;28;20025;-66
2023/09/07 03:59:31;;;;;;;94.20;65.15;;;31.60;99.90;;;;;;5053071;28;20495;-67
2023/09/07 04:01:57;;;;;;;97.10;64.45;;;31.70;99.90;;;;;;5052978;28;20028;-67
2023/09/07 04:04:24;;;;;;;103.43;68.57;;;31.80;99.90;;;;;;5052953;28;20442;-66
2023/09/07 04:06:50;;;;;;;109.57;75.38;;;31.80;99.90;;;;;;5053073;28;20079;-68
2023/09/07 04:09:17;;;;;;;112.65;73.57;;;31.80;99.90;;;;;;5053277;28;20079;-66
2023/09/07 04:11:43;;;;;;;108.80;72.03;;;32.00;99.90;;;;;;5052830;28;20029;-67
2023/09/07 04:14:10;;;;;;;117.38;75.78;;;31.90;99.90;;;;;;5060685;28;20078;-67
2023/09/07 04:16:37;;;;;;;113.43;73.07;;;31.90;99.90;;;;;;5073069;28;20031;-67
2023/09/07 04:19:04;;;;;;;131.38;80.15;;;32.00;99.90;;;;;;5072701;28;20044;-70
2023/09/07 04:21:30;;;;;;;112.93;72.22;;;32.10;99.90;;;;;;5073087;28;20376;-68
2023/09/07 04:23:57;;;;;;;110.60;67.75;;;32.10;99.90;;;;;;5072849;28;20095;-67
2023/09/07 04:26:23;;;;;;;102.93;64.85;;;32.20;99.90;;;;;;5073492;28;20471;-68
2023/09/07 04:28:50;;;;;;;90.15;59.03;;;32.30;99.90;;;;;;5077190;28;20021;-69
2023/09/07 04:31:16;;;;;;;97.28;59.40;;;32.30;99.90;;;;;;5077071;28;20494;-67
2023/09/07 04:33:43;;;;;;;82.88;54.72;;;32.50;99.90;;;;;;5076877;28;20158;-66
2023/09/07 04:36:13;;;;;;;87.25;58.45;;;32.40;99.90;;;;;;5095531;28;20048;-68
2023/09/07 04:38:40;;;;;;;93.50;56.35;;;32.30;99.90;;;;;;5097248;28;20023;-67
2023/09/07 04:41:09;;;;;;;86.28;55.85;;;32.30;99.90;;;;;;5097055;28;20024;-68
2023/09/07 04:43:37;;;;;;;77.60;48.38;;;32.20;99.90;;;;;;5096995;28;20490;-69
2023/09/07 04:46:03;;;;;;;75.60;47.25;;;32.20;99.90;;;;;;5097148;28;20359;-69
2023/09/07 04:48:30;;;;;;;81.25;49.53;;;32.20;99.90;;;;;;5096821;28;20027;-67
2023/09/07 04:51:06;;;;;;;75.10;49.20;;;32.20;99.90;;;;;;5096905;28;20021;-68
2023/09/07 04:53:35;;;;;;;89.55;52.50;;;32.30;99.90;;;;;;5096824;28;20032;-69
2023/09/07 04:56:03;;;;;;;76.82;49.70;;;32.30;99.90;;;;;;5096638;28;20470;-70
2023/09/07 04:58:30;;;;;;;95.28;52.67;;;32.40;99.90;;;;;;5096654;28;20470;-70
2023/09/07 05:01:08;;;;;;;89.18;58.22;;;32.50;99.90;;;;;;5096906;28;20411;-66
2023/09/07 05:03:35;;;;;;;93.97;59.80;;;32.60;99.90;;;;;;5096808;28;20024;-67
2023/09/07 05:06:03;;;;;;;92.72;59.63;;;32.70;99.90;;;;;;5090251;28;20078;-67
2023/09/07 05:08:30;;;;;;;98.13;62.83;;;32.70;99.90;;;;;;5090975;28;20111;-66
2023/09/07 05:10:59;;;;;;;101.97;66.65;;;32.80;99.90;;;;;;5096678;28;20081;-68
2023/09/07 05:13:27;;;;;;;117.82;72.35;;;32.80;99.90;;;;;;5096500;28;20032;-67
2023/09/07 05:15:55;;;;;;;120.05;75.03;;;32.90;99.90;;;;;;5096698;28;20261;-68
2023/09/07 05:18:22;;;;;;;120.13;75.60;;;33.00;99.90;;;;;;5096648;28;20496;-67
2023/09/07 05:20:51;;;;;;;140.65;83.78;;;32.90;99.90;;;;;;5096286;28;20024;-68
2023/09/07 05:23:19;;;;;;;156.88;94.15;;;33.00;99.90;;;;;;5096032;28;20471;-70
2023/09/07 05:25:47;;;;;;;156.20;95.90;;;33.00;99.90;;;;;;5096049;28;20047;-69
2023/09/07 05:28:14;;;;;;;138.25;83.85;;;33.10;99.90;;;;;;5096156;28;20021;-71
2023/09/07 05:30:42;;;;;;;138.85;83.82;;;33.10;99.90;;;;;;5095983;28;20031;-70
2023/09/07 05:33:10;;;;;;;146.50;88.53;;;33.10;99.90;;;;;;5095905;28;20101;-71
2023/09/07 05:35:37;;;;;;;170.43;99.65;;;33.10;99.90;;;;;;5095934;28;20041;-70
2023/09/07 05:38:05;;;;;;;164.15;95.15;;;33.20;99.90;;;;;;5085729;28;20032;-70
2023/09/07 05:40:42;;;;;;;155.07;94.75;;;33.20;99.90;;;;;;5091753;28;20032;-71
2023/09/07 05:43:11;;;;;;;116.55;71.18;;;33.30;99.90;;;;;;5095624;28;20024;-71
2023/09/07 05:45:40;;;;;;;109.35;66.05;;;33.40;99.90;;;;;;5095881;28;20015;-70
2023/09/07 05:48:08;;;;;;;123.82;67.35;;;33.50;99.90;;;;;;5095770;28;20020;-71
2023/09/07 05:50:36;;;;;;;111.47;65.32;;;33.50;99.90;;;;;;5095544;28;20019;-70
2023/09/07 05:53:03;;;;;;;107.88;64.00;;;33.70;99.90;;;;;;5095668;28;20016;-70
2023/09/07 05:55:30;;;;;;;94.15;58.33;;;33.70;99.90;;;;;;5095625;28;20355;-71
2023/09/07 05:57:58;;;;;;;74.82;49.03;;;33.60;99.90;;;;;;5095371;28;20020;-69
2023/09/07 06:00:25;;;;;;;68.97;45.22;;;33.60;99.90;;;;;;5095475;28;20457;-72
2023/09/07 06:02:52;;;;;;;66.22;42.28;;;33.70;99.90;;;;;;5095599;28;20099;-72
2023/09/07 06:05:18;;;;;;;62.75;38.08;;;33.70;99.90;;;;;;5095325;28;20016;-72
2023/09/07 06:07:45;;;;;;;57.95;39.67;;;33.80;99.90;;;;;;5095337;28;20405;-70
2023/09/07 06:10:12;;;;;;;55.88;41.47;;;33.80;99.90;;;;;;5095214;28;20031;-69
2023/09/07 06:12:38;;;;;;;52.95;36.35;;;33.80;99.90;;;;;;5095166;28;20077;-68
2023/09/07 06:15:05;;;;;;;58.88;38.85;;;33.80;99.90;;;;;;5095301;28;20028;-69
2023/09/07 06:17:32;;;;;;;64.35;38.95;;;33.80;99.90;;;;;;5095279;28;20024;-69
2023/09/07 06:19:58;;;;;;;47.15;33.00;;;33.80;99.90;;;;;;5094919;28;20020;-68
2023/09/07 06:22:25;;;;;;;42.15;29.13;;;33.90;99.90;;;;;;5095269;28;20102;-69
2023/09/07 06:24:52;;;;;;;34.95;27.20;;;34.00;99.90;;;;;;5095092;28;20024;-70
2023/09/07 06:27:18;;;;;;;36.17;27.17;;;33.90;99.90;;;;;;5094964;28;20019;-69
2023/09/07 06:29:45;;;;;;;35.50;26.15;;;33.90;99.90;;;;;;5091284;28;20024;-70
2023/09/07 06:32:11;;;;;;;36.00;25.60;;;33.90;99.90;;;;;;5086162;28;20035;-69
2023/09/07 06:34:39;;;;;;;32.05;23.77;;;33.90;99.90;;;;;;5094533;28;20115;-71
2023/09/07 06:37:06;;;;;;;34.65;25.17;;;33.90;99.90;;;;;;5095040;28;20044;-69
2023/09/07 06:39:33;;;;;;;31.80;23.23;;;33.80;98.90;;;;;;5094631;28;20463;-71
2023/09/07 06:41:59;;;;;;;35.03;24.35;;;33.80;98.90;;;;;;5094784;28;20070;-71
2023/09/07 06:44:26;;;;;;;33.03;24.60;;;33.80;99.80;;;;;;5094474;28;20024;-71
2023/09/07 06:46:52;;;;;;;30.73;24.63;;;33.80;99.90;;;;;;5094688;28;20467;-71
2023/09/07 06:49:19;;;;;;;30.73;25.58;;;33.80;99.70;;;;;;5084864;28;20033;-69
2023/09/07 06:51:46;;;;;;;33.28;25.48;;;33.80;99.30;;;;;;5063758;28;20017;-70
2023/09/07 06:54:13;;;;;;;31.55;22.67;;;33.80;99.10;;;;;;5073322;28;20036;-69
2023/09/07 06:56:39;;;;;;;29.02;23.08;;;33.70;99.10;;;;;;5094530;28;20020;-68
2023/09/07 06:59:06;;;;;;;28.40;21.73;;;33.80;99.20;;;;;;5094201;28;20024;-67
2023/09/07 07:01:32;;;;;;;29.27;21.65;;;33.90;99.50;;;;;;5094322;28;20020;-70
2023/09/07 07:03:59;;;;;;;27.90;21.90;;;34.00;99.50;;;;;;5090922;28;20025;-69
2023/09/07 07:06:26;;;;;;;31.58;23.25;;;34.10;99.60;;;;;;5085128;28;20020;-69
2023/09/07 07:08:52;;;;;;;29.50;23.45;;;34.20;99.20;;;;;;5094644;28;20103;-70
2023/09/07 07:11:20;;;;;;;32.90;23.73;;;34.20;99.00;;;;;;5094446;28;20102;-75
2023/09/07 07:13:46;;;;;;;35.08;25.75;;;34.10;98.70;;;;;;5094361;28;20020;-72
2023/09/07 07:16:13;;;;;;;36.70;25.25;;;34.00;98.90;;;;;;5094584;28;20024;-71
2023/09/07 07:18:40;;;;;;;31.60;25.20;;;33.90;98.80;;;;;;5094004;28;20017;-68
2023/09/07 07:21:06;;;;;;;38.83;25.58;;;33.90;98.60;;;;;;5093951;28;20024;-70
2023/09/07 07:23:33;;;;;;;35.55;25.95;;;33.80;98.90;;;;;;5094145;28;20035;-71
2023/09/07 07:25:59;;;;;;;35.80;25.20;;;33.80;99.00;;;;;;5093993;28;20082;-71
2023/09/07 07:28:26;;;;;;;30.88;24.73;;;33.90;98.90;;;;;;5093725;28;20020;-71
2023/09/07 07:30:53;;;;;;;34.70;25.95;;;33.90;99.30;;;;;;5055254;28;20036;-68
2023/09/07 07:33:20;;;;;;;35.85;26.00;;;34.00;99.20;;;;;;5053448;28;20036;-70
2023/09/07 07:35:47;;;;;;;32.60;24.20;;;34.00;99.10;;;;;;5071997;28;20515;-68
2023/09/07 07:38:15;;;;;;;30.88;23.75;;;34.10;99.00;;;;;;5072554;28;20024;-72
2023/09/07 07:40:42;;;;;;;33.97;26.35;;;34.00;98.60;;;;;;5072303;28;20047;-72
2023/09/07 07:43:10;;;;;;;33.05;25.35;;;34.00;98.40;;;;;;5073060;28;20028;-69
2023/09/07 07:45:38;;;;;;;34.03;24.05;;;34.00;98.80;;;;;;5073237;28;20025;-69
2023/09/07 07:48:07;;;;;;;38.53;28.70;;;34.00;98.60;;;;;;5073220;28;20055;-69
2023/09/07 07:50:39;;;;;;;39.70;27.30;;;34.00;98.90;;;;;;5073062;28;20058;-69
2023/09/07 07:53:06;;;;;;;37.40;24.35;;;33.90;99.10;;;;;;5073276;28;20540;-67
2023/09/07 07:55:38;;;;;;;32.28;25.10;;;33.90;99.10;;;;;;5073253;28;20398;-67
2023/09/07 07:58:08;;;;;;;31.73;23.33;;;34.00;99.30;;;;;;5072978;28;20067;-68
2023/09/07 08:00:36;;;;;;;31.02;23.35;;;34.00;99.00;;;;;;5069848;28;20162;-71
2023/09/07 08:03:03;;;;;;;27.73;22.83;;;34.10;98.70;;;;;;5061679;28;20028;-70
2023/09/07 08:05:31;;;;;;;169.70;54.80;;;34.20;98.70;;;;;;5053010;28;20017;-71
2023/09/07 08:07:57;;;;;;;32.03;22.95;;;34.30;98.80;;;;;;5052954;28;20467;-69
2023/09/07 08:10:24;;;;;;;31.98;23.58;;;34.20;97.80;;;;;;5053052;28;20033;-68
2023/09/07 08:12:59;;;;;;;40.10;26.58;;;34.30;97.90;;;;;;5060911;28;20032;-70
2023/09/07 08:15:27;;;;;;;32.90;25.42;;;34.40;98.10;;;;;;5062176;28;20024;-70
2023/09/07 08:17:54;;;;;;;30.23;22.85;;;34.50;97.90;;;;;;5061949;28;20024;-69
2023/09/07 08:20:20;;;;;;;32.35;24.77;;;34.60;97.70;;;;;;5063502;28;20036;-70
2023/09/07 08:22:47;;;;;;;35.78;25.20;;;34.60;97.80;;;;;;5062316;28;20100;-72
2023/09/07 08:25:14;;;;;;;35.75;26.42;;;34.60;97.60;;;;;;5061659;28;20028;-70
2023/09/07 08:27:44;;;;;;;30.90;24.90;;;34.60;97.80;;;;;;5063427;28;20463;-71
2023/09/07 08:30:14;;;;;;;33.55;24.08;;;34.70;97.40;;;;;;5060556;28;20029;-66
2023/09/07 08:32:40;;;;;;;33.80;24.33;;;34.60;96.90;;;;;;5052597;28;20107;-68
2023/09/07 08:35:12;;;;;;;32.53;24.48;;;34.50;96.90;;;;;;5052550;28;20128;-69
2023/09/07 08:37:41;;;;;;;33.90;23.40;;;34.50;96.90;;;;;;5066839;28;20396;-68
2023/09/07 08:40:08;;;;;;;47.53;21.88;;;34.40;97.10;;;;;;5070412;28;20033;-70
2023/09/07 08:42:38;;;;;;;38.83;25.05;;;34.30;97.80;;;;;;5063228;28;20500;-71
2023/09/07 08:45:07;;;;;;;34.63;22.30;;;34.30;98.60;;;;;;5056726;28;20021;-68
2023/09/07 08:47:38;;;;;;;29.58;22.92;;;34.20;98.70;;;;;;5062490;28;20041;-69
2023/09/07 08:50:07;;;;;;;30.67;20.90;;;34.20;98.90;;;;;;5065239;28;20482;-67
2023/09/07 08:52:35;;;;;;;28.38;22.23;;;34.10;98.90;;;;;;5063256;28;20102;-66
2023/09/07 08:55:04;;;;;;;35.95;22.88;;;34.00;99.20;;;;;;5063290;28;20029;-69
2023/09/07 08:57:32;;;;;;;31.80;22.27;;;34.00;99.30;;;;;;5063675;28;20085;-67
2023/09/07 08:59:58;;;;;;;35.33;23.75;;;34.00;99.30;;;;;;5072165;28;20104;-67
2023/09/07 09:02:25;;;;;;;30.30;21.05;;;34.00;99.40;;;;;;5066555;28;20025;-67
2023/09/07 09:04:53;;;;;;;32.78;22.92;;;34.00;99.40;;;;;;5061360;28;20016;-68
2023/09/07 09:07:20;;;;;;;40.95;28.40;;;34.00;99.30;;;;;;5060956;28;20027;-68
2023/09/07 09:09:47;;;;;;;32.90;25.52;;;34.00;99.20;;;;;;5061952;28;20016;-66
2023/09/07 09:12:14;;;;;;;30.00;23.90;;;33.90;98.90;;;;;;5063505;28;20506;-66
2023/09/07 09:14:44;;;;;;;33.83;25.33;;;33.90;98.90;;;;;;5073488;28;20074;-67
2023/09/07 09:17:15;;;;;;;35.38;24.23;;;33.90;98.90;;;;;;5075543;28;20031;-67
2023/09/07 09:19:42;;;;;;;34.22;23.10;;;33.90;99.00;;;;;;5075660;28;20029;-67
2023/09/07 09:22:09;;;;;;;33.78;22.42;;;33.90;98.90;;;;;;5075645;28;20542;-66
2023/09/07 09:24:36;;;;;;;30.92;20.95;;;33.80;98.40;;;;;;5075686;28;20024;-66
2023/09/07 09:27:04;;;;;;;33.65;25.63;;;33.80;98.50;;;;;;5075714;28;20017;-66
2023/09/07 09:29:34;;;;;;;37.13;25.33;;;33.80;98.10;;;;;;5075526;28;20398;-67
2023/09/07 09:32:04;;;;;;;40.42;25.23;;;33.70;99.00;;;;;;5075806;28;20028;-67
2023/09/07 09:34:45;;;;;;;88.55;54.40;;;33.70;99.40;;;;;;5080317;28;20075;-65
2023/09/07 09:37:15;;;;;;;426.58;225.25;;;33.60;99.90;;;;;;5078006;28;20500;-66
2023/09/07 09:39:43;;;;;;;267.60;133.90;;;33.50;99.90;;;;;;5095285;28;20048;-67
2023/09/07 09:42:10;;;;;;;430.75;193.82;;;33.40;99.90;;;;;;5095400;28;20024;-69
2023/09/07 09:44:39;;;;;;;477.33;204.18;;;33.40;99.90;;;;;;5073350;28;20020;-66
2023/09/07 09:47:08;;;;;;;261.60;103.82;;;33.30;99.90;;;;;;5064201;28;20027;-67
2023/09/07 09:49:35;;;;;;;435.13;163.30;;;33.20;99.90;;;;;;5066996;28;20028;-70
2023/09/07 09:52:02;;;;;;;289.77;109.25;;;33.20;99.90;;;;;;5075656;28;20020;-70
2023/09/07 09:54:33;;;;;;;244.00;98.75;;;33.10;99.90;;;;;;5075711;28;20023;-70
2023/09/07 09:56:59;;;;;;;505.63;259.92;;;33.10;99.90;;;;;;5075420;28;20032;-70
2023/09/07 09:59:26;;;;;;;231.52;102.03;;;33.10;99.90;;;;;;5075449;28;20021;-71
2023/09/07 10:01:55;;;;;;;305.08;216.05;;;33.00;99.90;;;;;;5077763;28;20013;-71
2023/09/07 10:04:22;;;;;;;216.38;138.70;;;32.90;99.90;;;;;;5071507;28;20029;-71
2023/09/07 10:07:05;;;;;;;147.13;93.55;;;32.90;99.90;;;;;;5063735;28;20052;-71
2023/09/07 10:09:33;;;;;;;;;;;32.90;99.90;;;;;;5064233;28;20025;-69
2023/09/07 10:12:03;;;;;;;1004.22;649.78;;;32.70;99.90;;;;;;5064569;28;19970;-66
2023/09/07 10:14:51;;;;;;;424.90;271.60;;;32.70;99.90;;;;;;5060634;28;20029;-64
2023/09/07 10:17:26;;;;;;;395.00;251.75;;;32.60;99.90;;;;;;5055726;28;20432;-67
2023/09/07 10:20:05;;;;;;;329.88;197.75;;;32.60;99.90;;;;;;5055397;28;20024;-68
2023/09/07 10:22:31;;;;;;;106.47;61.55;;;32.60;99.90;;;;;;5055597;28;20103;-68
2023/09/07 10:24:59;;;;;;;81.60;44.88;;;32.50;99.90;;;;;;5054883;28;20559;-69
2023/09/07 10:27:25;;;;;;;86.95;51.92;;;32.50;99.90;;;;;;5054209;28;20060;-68
2023/09/07 10:29:52;;;;;;;76.10;39.70;;;32.40;99.90;;;;;;5054309;28;20025;-68
2023/09/07 10:32:19;;;;;;;155.07;85.90;;;32.40;99.90;;;;;;5055422;28;20391;-68
2023/09/07 10:34:45;;;;;;;57.95;35.05;;;32.40;99.90;;;;;;5054829;28;20095;-67
2023/09/07 10:37:13;;;;;;;61.38;35.22;;;32.40;99.90;;;;;;5055562;28;20025;-66
2023/09/07 10:39:43;;;;;;;56.20;30.55;;;32.40;99.90;;;;;;5055090;28;20032;-66
2023/09/07 10:42:21;;;;;;;41.72;27.98;;;32.40;99.90;;;;;;5054053;28;20025;-68
2023/09/07 10:44:48;;;;;;;39.70;26.10;;;32.30;99.90;;;;;;5054119;28;20033;-68
2023/09/07 10:47:14;;;;;;;35.70;24.75;;;32.30;99.90;;;;;;5054485;28;20025;-70
2023/09/07 10:49:41;;;;;;;39.28;25.38;;;32.20;99.90;;;;;;5054950;28;20265;-69
2023/09/07 10:52:08;;;;;;;40.67;26.75;;;32.20;99.90;;;;;;5054823;28;20055;-68
2023/09/07 10:54:35;;;;;;;39.90;25.20;;;32.20;99.90;;;;;;5055241;28;20033;-68
2023/09/07 10:57:13;;;;;;;33.90;24.25;;;32.20;99.90;;;;;;5054986;28;20017;-65
2023/09/07 10:59:45;;;;;;;35.78;23.92;;;32.20;99.90;;;;;;5054655;28;20036;-65
2023/09/07 11:02:12;;;;;;;36.22;22.35;;;32.10;99.90;;;;;;5054749;28;20104;-65
2023/09/07 11:04:39;;;;;;;32.55;22.73;;;32.10;99.90;;;;;;5054783;28;20048;-68
2023/09/07 11:07:06;;;;;;;36.08;23.17;;;32.00;99.90;;;;;;5054793;28;20127;-67
2023/09/07 11:09:33;;;;;;;29.80;21.25;;;32.00;99.90;;;;;;5054470;28;20029;-66
2023/09/07 11:12:05;;;;;;;33.92;24.33;;;32.00;99.90;;;;;;5054472;28;20368;-66
2023/09/07 11:14:32;;;;;;;38.42;25.45;;;32.00;99.90;;;;;;5054753;28;20029;-66
2023/09/07 11:17:00;;;;;;;41.63;26.33;;;31.90;99.90;;;;;;5054374;28;20033;-66
2023/09/07 11:19:27;;;;;;;37.08;27.00;;;31.90;99.90;;;;;;5054462;28;20040;-67
2023/09/07 11:21:55;;;;;;;39.35;26.42;;;31.90;99.90;;;;;;5089711;28;20047;-66
2023/09/07 11:24:22;;;;;;;40.00;25.92;;;31.80;99.90;;;;;;5094335;28;20036;-67
2023/09/07 11:26:48;;;;;;;43.25;28.05;;;31.80;99.90;;;;;;5094094;28;20050;-67
2023/09/07 11:29:16;;;;;;;42.33;28.30;;;31.80;99.90;;;;;;5094302;28;20081;-66
2023/09/07 11:31:44;;;;;;;42.15;27.30;;;31.70;99.90;;;;;;5093792;28;20070;-67
2023/09/07 11:34:12;;;;;;;43.70;27.40;;;31.70;99.90;;;;;;5093980;28;20054;-67
2023/09/07 11:36:40;;;;;;;41.63;28.58;;;31.60;99.90;;;;;;5093373;28;20028;-66
2023/09/07 11:39:12;;;;;;;41.92;27.55;;;31.60;99.90;;;;;;5094128;28;20474;-67
2023/09/07 11:41:42;;;;;;;44.70;29.17;;;31.50;99.90;;;;;;5093778;28;20067;-67
2023/09/07 11:44:09;;;;;;;43.35;31.05;;;31.50;99.90;;;;;;5093823;28;20016;-67
2023/09/07 11:46:36;;;;;;;42.35;31.85;;;31.40;99.90;;;;;;5094107;28;20038;-67
2023/09/07 11:49:04;;;;;;;44.40;31.25;;;31.40;99.90;;;;;;5093956;28;20031;-67
2023/09/07 11:51:31;;;;;;;49.00;28.95;;;31.30;99.90;;;;;;5093690;28;20031;-66
2023/09/07 11:53:59;;;;;;;46.85;29.75;;;31.30;99.90;;;;;;5093842;28;20028;-69
2023/09/07 11:56:26;;;;;;;38.08;27.70;;;31.30;99.90;;;;;;5094039;28;20024;-67
2023/09/07 11:58:52;;;;;;;49.75;32.88;;;31.20;99.90;;;;;;5093231;28;20111;-65
2023/09/07 12:01:19;;;;;;;45.58;30.80;;;31.20;99.90;;;;;;5093907;28;20070;-68
2023/09/07 12:03:45;;;;;;;48.45;31.25;;;31.20;99.90;;;;;;5093761;28;20074;-67
2023/09/07 12:06:12;;;;;;;56.25;34.78;;;31.30;99.90;;;;;;5093557;28;20016;-64
2023/09/07 12:08:43;;;;;;;59.10;37.42;;;31.20;99.90;;;;;;5093425;28;20028;-66
2023/09/07 12:11:09;;;;;;;63.28;38.50;;;31.10;99.90;;;;;;5093445;28;20103;-66
2023/09/07 12:13:36;;;;;;;53.22;35.50;;;31.10;99.90;;;;;;5093411;28;20118;-66
2023/09/07 12:16:03;;;;;;;58.80;37.03;;;31.10;99.90;;;;;;5093536;28;20095;-67
2023/09/07 12:18:29;;;;;;;60.53;35.13;;;31.10;99.90;;;;;;5093390;28;20035;-68
2023/09/07 12:20:56;;;;;;;67.88;38.15;;;31.10;99.90;;;;;;5093022;28;20081;-65
2023/09/07 12:23:23;;;;;;;74.13;38.90;;;31.10;99.90;;;;;;5093335;28;20627;-68
2023/09/07 12:25:51;;;;;;;49.67;33.75;;;31.10;99.90;;;;;;5093286;28;20074;-66